sensor_id;sensor_type;location;lat;lon;timestamp;temperature;humidity
4643;DHT22;2334;48.710;9.622;2023-03-17T00:00:06;6.30;99.90
4643;DHT22;2334;48.710;9.622;2023-03-17T00:02:34;6.30;99.90
4643;DHT22;2334;48.710;9.622;2023-03-17T00:05:02;6.30;99.90
4643;DHT22;2334;48.710;9.622;2023-03-17T00:07:30;6.30;99.90
4643;DHT22;2334;48.710;9.622;2023-03-17T00:09:57;6.20;99.90
4643;DHT22;2334;48.710;9.622;2023-03-17T00:12:24;6.30;99.90
4643;DHT22;2334;48.710;9.622;2023-03-17T00:14:51;6.20;99.90
4643;DHT22;2334;48.710;9.622;2023-03-17T00:17:18;6.20;99.90
4643;DHT22;2334;48.710;9.622;2023-03-17T00:19:45;6.20;99.90
4643;DHT22;2334;48.710;9.622;2023-03-17T00:22:15;6.20;99.90
4643;DHT22;2334;48.710;9.622;2023-03-17T00:24:44;6.10;99.90
4643;DHT22;2334;48.710;9.622;2023-03-17T00:27:12;6.10;99.90
4643;DHT22;2334;48.710;9.622;2023-03-17T00:29:39;6.10;99.90
4643;DHT22;2334;48.710;9.622;2023-03-17T00:32:13;6.10;99.90
4643;DHT22;2334;48.710;9.622;2023-03-17T00:34:42;6.00;99.90
4643;DHT22;2334;48.710;9.622;2023-03-17T00:37:10;6.00;99.90
4643;DHT22;2334;48.710;9.622;2023-03-17T00:39:38;5.90;99.90
4643;DHT22;2334;48.710;9.622;2023-03-17T00:42:07;5.90;99.90
4643;DHT22;2334;48.710;9.622;2023-03-17T00:44:34;5.90;99.90
4643;DHT22;2334;48.710;9.622;2023-03-17T00:47:01;5.90;99.90
4643;DHT22;2334;48.710;9.622;2023-03-17T00:49:28;5.90;99.90
4643;DHT22;2334;48.710;9.622;2023-03-17T00:51:55;5.90;99.90
4643;DHT22;2334;48.710;9.622;2023-03-17T00:54:22;5.90;99.90
4643;DHT22;2334;48.710;9.622;2023-03-17T00:56:50;5.90;99.90
4643;DHT22;2334;48.710;9.622;2023-03-17T00:59:23;5.90;99.90
4643;DHT22;2334;48.710;9.622;2023-03-17T01:01:50;5.90;99.90
4643;DHT22;2334;48.710;9.622;2023-03-17T01:04:17;5.90;99.90
4643;DHT22;2334;48.710;9.622;2023-03-17T01:06:45;5.90;99.90
4643;DHT22;2334;48.710;9.622;2023-03-17T01:09:13;6.00;99.90
4643;DHT22;2334;48.710;9.622;2023-03-17T01:11:41;5.90;99.90
4643;DHT22;2334;48.710;9.622;2023-03-17T01:14:09;5.90;99.90
4643;DHT22;2334;48.710;9.622;2023-03-17T01:16:39;5.90;99.90
4643;DHT22;2334;48.710;9.622;2023-03-17T01:19:06;6.00;99.90
4643;DHT22;2334;48.710;9.622;2023-03-17T01:21:33;6.00;99.90
4643;DHT22;2334;48.710;9.622;2023-03-17T01:24:00;6.00;99.90
4643;DHT22;2334;48.710;9.622;2023-03-17T01:26:27;6.00;99.90
4643;DHT22;2334;48.710;9.622;2023-03-17T01:28:54;6.00;99.90
4643;DHT22;2334;48.710;9.622;2023-03-17T01:31:21;6.00;99.90
4643;DHT22;2334;48.710;9.622;2023-03-17T01:33:50;6.00;99.90
4643;DHT22;2334;48.710;9.622;2023-03-17T01:36:17;6.00;99.90
4643;DHT22;2334;48.710;9.622;2023-03-17T01:38:45;6.00;99.90
4643;DHT22;2334;48.710;9.622;2023-03-17T01:41:14;6.00;99.90
4643;DHT22;2334;48.710;9.622;2023-03-17T01:43:41;6.10;99.90
4643;DHT22;2334;48.710;9.622;2023-03-17T01:46:24;6.10;99.90
4643;DHT22;2334;48.710;9.622;2023-03-17T01:49:08;6.00;99.90
4643;DHT22;2334;48.710;9.622;2023-03-17T01:51:41;6.00;99.90
4643;DHT22;2334;48.710;9.622;2023-03-17T01:54:16;6.00;99.90
4643;DHT22;2334;48.710;9.622;2023-03-17T01:56:44;6.00;99.90
4643;DHT22;2334;48.710;9.622;2023-03-17T01:59:18;6.00;99.90
4643;DHT22;2334;48.710;9.622;2023-03-17T02:01:48;6.00;99.90
4643;DHT22;2334;48.710;9.622;2023-03-17T02:04:18;6.00;99.90
4643;DHT22;2334;48.710;9.622;2023-03-17T02:06:47;6.10;99.90
4643;DHT22;2334;48.710;9.622;2023-03-17T02:09:15;6.10;99.90
4643;DHT22;2334;48.710;9.622;2023-03-17T02:11:43;6.10;99.90
4643;DHT22;2334;48.710;9.622;2023-03-17T02:14:11;6.10;99.90
4643;DHT22;2334;48.710;9.622;2023-03-17T02:16:38;6.00;99.90
4643;DHT22;2334;48.710;9.622;2023-03-17T02:19:04;6.00;99.90
4643;DHT22;2334;48.710;9.622;2023-03-17T02:21:40;6.00;99.90
4643;DHT22;2334;48.710;9.622;2023-03-17T02:24:11;6.00;99.90
4643;DHT22;2334;48.710;9.622;2023-03-17T02:26:40;6.00;99.90
4643;DHT22;2334;48.710;9.622;2023-03-17T02:29:10;5.90;99.90
4643;DHT22;2334;48.710;9.622;2023-03-17T02:31:37;5.90;99.90
4643;DHT22;2334;48.710;9.622;2023-03-17T02:34:04;5.80;99.90
4643;DHT22;2334;48.710;9.622;2023-03-17T02:36:31;5.80;99.90
4643;DHT22;2334;48.710;9.622;2023-03-17T02:38:59;5.80;99.90
4643;DHT22;2334;48.710;9.622;2023-03-17T02:41:27;5.80;99.90
4643;DHT22;2334;48.710;9.622;2023-03-17T02:43:54;5.80;99.90
4643;DHT22;2334;48.710;9.622;2023-03-17T02:46:21;5.80;99.90
4643;DHT22;2334;48.710;9.622;2023-03-17T02:48:49;5.80;99.90
4643;DHT22;2334;48.710;9.622;2023-03-17T02:51:15;5.80;99.90
4643;DHT22;2334;48.710;9.622;2023-03-17T02:53:42;5.80;99.90
4643;DHT22;2334;48.710;9.622;2023-03-17T02:56:11;5.80;99.90
4643;DHT22;2334;48.710;9.622;2023-03-17T02:58:37;5.80;99.90
4643;DHT22;2334;48.710;9.622;2023-03-17T03:01:05;5.70;99.90
4643;DHT22;2334;48.710;9.622;2023-03-17T03:03:31;5.70;99.90
4643;DHT22;2334;48.710;9.622;2023-03-17T03:05:58;5.70;99.90
4643;DHT22;2334;48.710;9.622;2023-03-17T03:08:26;5.70;99.90
4643;DHT22;2334;48.710;9.622;2023-03-17T03:10:53;5.70;99.90
4643;DHT22;2334;48.710;9.622;2023-03-17T03:13:22;5.70;99.90
4643;DHT22;2334;48.710;9.622;2023-03-17T03:15:49;5.70;99.90
4643;DHT22;2334;48.710;9.622;2023-03-17T03:18:16;5.70;99.90
4643;DHT22;2334;48.710;9.622;2023-03-17T03:20:43;5.60;99.90
4643;DHT22;2334;48.710;9.622;2023-03-17T03:23:11;5.60;99.90
4643;DHT22;2334;48.710;9.622;2023-03-17T03:25:38;5.60;99.90
4643;DHT22;2334;48.710;9.622;2023-03-17T03:28:06;5.60;99.90
4643;DHT22;2334;48.710;9.622;2023-03-17T03:30:36;5.60;99.90
4643;DHT22;2334;48.710;9.622;2023-03-17T03:33:04;5.60;99.90
4643;DHT22;2334;48.710;9.622;2023-03-17T03:35:31;5.50;99.90
4643;DHT22;2334;48.710;9.622;2023-03-17T03:38:05;5.50;99.90
4643;DHT22;2334;48.710;9.622;2023-03-17T03:40:32;5.50;99.90
4643;DHT22;2334;48.710;9.622;2023-03-17T03:42:59;5.50;99.90
4643;DHT22;2334;48.710;9.622;2023-03-17T03:45:26;5.50;99.90
4643;DHT22;2334;48.710;9.622;2023-03-17T03:47:55;5.50;99.90
4643;DHT22;2334;48.710;9.622;2023-03-17T03:50:22;5.50;99.90
4643;DHT22;2334;48.710;9.622;2023-03-17T03:52:49;5.50;99.90
4643;DHT22;2334;48.710;9.622;2023-03-17T03:55:16;5.50;99.90
4643;DHT22;2334;48.710;9.622;2023-03-17T03:57:43;5.50;99.90
4643;DHT22;2334;48.710;9.622;2023-03-17T04:00:11;5.40;99.90
4643;DHT22;2334;48.710;9.622;2023-03-17T04:02:39;5.50;99.90
4643;DHT22;2334;48.710;9.622;2023-03-17T04:05:11;5.40;99.90
4643;DHT22;2334;48.710;9.622;2023-03-17T04:07:38;5.40;99.90
4643;DHT22;2334;48.710;9.622;2023-03-17T04:10:06;5.40;99.90
4643;DHT22;2334;48.710;9.622;2023-03-17T04:12:33;5.40;99.90
4643;DHT22;2334;48.710;9.622;2023-03-17T04:15:00;5.30;99.90
4643;DHT22;2334;48.710;9.622;2023-03-17T04:17:27;5.30;99.90
4643;DHT22;2334;48.710;9.622;2023-03-17T04:19:54;5.30;99.90
4643;DHT22;2334;48.710;9.622;2023-03-17T04:22:22;5.20;99.90
4643;DHT22;2334;48.710;9.622;2023-03-17T04:24:49;5.20;99.90
4643;DHT22;2334;48.710;9.622;2023-03-17T04:27:16;5.20;99.90
4643;DHT22;2334;48.710;9.622;2023-03-17T04:29:43;5.20;99.90
4643;DHT22;2334;48.710;9.622;2023-03-17T04:32:11;5.20;99.90
4643;DHT22;2334;48.710;9.622;2023-03-17T04:34:41;5.10;99.90
4643;DHT22;2334;48.710;9.622;2023-03-17T04:37:09;5.10;99.90
4643;DHT22;2334;48.710;9.622;2023-03-17T04:39:37;5.10;99.90
4643;DHT22;2334;48.710;9.622;2023-03-17T04:42:05;5.10;99.90
4643;DHT22;2334;48.710;9.622;2023-03-17T04:44:32;5.10;99.90
4643;DHT22;2334;48.710;9.622;2023-03-17T04:46:59;5.00;99.90
4643;DHT22;2334;48.710;9.622;2023-03-17T04:49:26;5.00;99.90
4643;DHT22;2334;48.710;9.622;2023-03-17T04:51:53;5.00;99.90
4643;DHT22;2334;48.710;9.622;2023-03-17T04:54:21;5.00;99.90
4643;DHT22;2334;48.710;9.622;2023-03-17T04:56:49;5.00;99.90
4643;DHT22;2334;48.710;9.622;2023-03-17T04:59:16;5.00;99.90
4643;DHT22;2334;48.710;9.622;2023-03-17T05:01:43;4.90;99.90
4643;DHT22;2334;48.710;9.622;2023-03-17T05:04:10;4.90;99.90
4643;DHT22;2334;48.710;9.622;2023-03-17T05:06:37;4.90;99.90
4643;DHT22;2334;48.710;9.622;2023-03-17T05:09:04;4.90;99.90
4643;DHT22;2334;48.710;9.622;2023-03-17T05:11:31;4.90;99.90
4643;DHT22;2334;48.710;9.622;2023-03-17T05:14:00;4.90;99.90
4643;DHT22;2334;48.710;9.622;2023-03-17T05:16:26;4.90;99.90
4643;DHT22;2334;48.710;9.622;2023-03-17T05:18:53;4.90;99.90
4643;DHT22;2334;48.710;9.622;2023-03-17T05:21:20;4.90;99.90
4643;DHT22;2334;48.710;9.622;2023-03-17T05:23:47;4.90;99.90
4643;DHT22;2334;48.710;9.622;2023-03-17T05:26:14;5.00;99.90
4643;DHT22;2334;48.710;9.622;2023-03-17T05:28:41;5.00;99.90
4643;DHT22;2334;48.710;9.622;2023-03-17T05:31:10;5.00;99.90
4643;DHT22;2334;48.710;9.622;2023-03-17T05:33:37;5.10;99.90
4643;DHT22;2334;48.710;9.622;2023-03-17T05:36:05;5.10;99.90
4643;DHT22;2334;48.710;9.622;2023-03-17T05:38:31;5.10;99.90
4643;DHT22;2334;48.710;9.622;2023-03-17T05:40:59;5.20;99.90
4643;DHT22;2334;48.710;9.622;2023-03-17T05:43:27;5.10;99.90
4643;DHT22;2334;48.710;9.622;2023-03-17T05:45:54;5.10;99.90
4643;DHT22;2334;48.710;9.622;2023-03-17T05:48:22;5.10;99.90
4643;DHT22;2334;48.710;9.622;2023-03-17T05:50:49;5.10;99.90
4643;DHT22;2334;48.710;9.622;2023-03-17T05:53:16;5.10;99.90
4643;DHT22;2334;48.710;9.622;2023-03-17T05:55:43;5.20;99.90
4643;DHT22;2334;48.710;9.622;2023-03-17T05:58:11;5.20;99.90
4643;DHT22;2334;48.710;9.622;2023-03-17T06:00:40;5.20;99.90
4643;DHT22;2334;48.710;9.622;2023-03-17T06:03:07;5.20;99.90
4643;DHT22;2334;48.710;9.622;2023-03-17T06:05:36;5.30;99.90
4643;DHT22;2334;48.710;9.622;2023-03-17T06:08:03;5.30;99.90
4643;DHT22;2334;48.710;9.622;2023-03-17T06:10:31;5.30;99.90
4643;DHT22;2334;48.710;9.622;2023-03-17T06:12:58;5.40;99.90
4643;DHT22;2334;48.710;9.622;2023-03-17T06:15:26;5.40;99.90
4643;DHT22;2334;48.710;9.622;2023-03-17T06:17:53;5.50;99.90
4643;DHT22;2334;48.710;9.622;2023-03-17T06:20:20;5.50;99.90
4643;DHT22;2334;48.710;9.622;2023-03-17T06:22:48;5.60;99.90
4643;DHT22;2334;48.710;9.622;2023-03-17T06:25:15;5.70;99.90
4643;DHT22;2334;48.710;9.622;2023-03-17T06:27:42;5.80;99.90
4643;DHT22;2334;48.710;9.622;2023-03-17T06:30:10;5.90;99.90
4643;DHT22;2334;48.710;9.622;2023-03-17T06:32:37;6.00;99.90
4643;DHT22;2334;48.710;9.622;2023-03-17T06:35:05;6.20;99.90
4643;DHT22;2334;48.710;9.622;2023-03-17T06:37:33;6.30;99.90
4643;DHT22;2334;48.710;9.622;2023-03-17T06:40:01;6.40;99.90
4643;DHT22;2334;48.710;9.622;2023-03-17T06:42:30;6.40;99.90
4643;DHT22;2334;48.710;9.622;2023-03-17T06:44:57;6.50;99.90
4643;DHT22;2334;48.710;9.622;2023-03-17T06:47:24;6.50;99.90
4643;DHT22;2334;48.710;9.622;2023-03-17T06:49:53;6.60;99.90
4643;DHT22;2334;48.710;9.622;2023-03-17T06:52:20;6.50;99.90
4643;DHT22;2334;48.710;9.622;2023-03-17T06:54:47;6.60;99.90
4643;DHT22;2334;48.710;9.622;2023-03-17T06:57:16;6.70;99.90
4643;DHT22;2334;48.710;9.622;2023-03-17T06:59:45;6.70;99.90
4643;DHT22;2334;48.710;9.622;2023-03-17T07:02:12;6.80;99.90
4643;DHT22;2334;48.710;9.622;2023-03-17T07:04:42;6.90;99.90
4643;DHT22;2334;48.710;9.622;2023-03-17T07:07:09;7.00;99.90
4643;DHT22;2334;48.710;9.622;2023-03-17T07:09:36;7.20;99.90
4643;DHT22;2334;48.710;9.622;2023-03-17T07:12:05;7.20;99.90
4643;DHT22;2334;48.710;9.622;2023-03-17T07:14:34;7.40;99.90
4643;DHT22;2334;48.710;9.622;2023-03-17T07:17:02;7.60;99.90
4643;DHT22;2334;48.710;9.622;2023-03-17T07:19:29;7.70;99.90
4643;DHT22;2334;48.710;9.622;2023-03-17T07:21:57;8.00;99.90
4643;DHT22;2334;48.710;9.622;2023-03-17T07:24:24;8.10;99.90
4643;DHT22;2334;48.710;9.622;2023-03-17T07:26:51;8.20;99.90
4643;DHT22;2334;48.710;9.622;2023-03-17T07:29:18;8.20;99.90
4643;DHT22;2334;48.710;9.622;2023-03-17T07:31:47;8.30;99.90
4643;DHT22;2334;48.710;9.622;2023-03-17T07:34:15;8.40;99.90
4643;DHT22;2334;48.710;9.622;2023-03-17T07:36:42;8.60;99.90
4643;DHT22;2334;48.710;9.622;2023-03-17T07:39:09;8.70;99.90
4643;DHT22;2334;48.710;9.622;2023-03-17T07:41:37;8.80;99.90
4643;DHT22;2334;48.710;9.622;2023-03-17T07:44:04;9.00;99.90
4643;DHT22;2334;48.710;9.622;2023-03-17T07:46:31;9.00;99.90
4643;DHT22;2334;48.710;9.622;2023-03-17T07:48:59;9.10;99.90
4643;DHT22;2334;48.710;9.622;2023-03-17T07:51:27;9.00;99.90
4643;DHT22;2334;48.710;9.622;2023-03-17T07:53:54;9.00;99.90
4643;DHT22;2334;48.710;9.622;2023-03-17T07:56:28;9.10;99.90
4643;DHT22;2334;48.710;9.622;2023-03-17T07:58:55;9.30;99.90
4643;DHT22;2334;48.710;9.622;2023-03-17T08:01:23;9.40;99.90
4643;DHT22;2334;48.710;9.622;2023-03-17T08:03:50;9.60;99.90
4643;DHT22;2334;48.710;9.622;2023-03-17T08:06:18;9.70;99.90
4643;DHT22;2334;48.710;9.622;2023-03-17T08:08:46;9.90;99.90
4643;DHT22;2334;48.710;9.622;2023-03-17T08:11:13;9.90;99.90
4643;DHT22;2334;48.710;9.622;2023-03-17T08:13:39;9.90;99.90
4643;DHT22;2334;48.710;9.622;2023-03-17T08:16:06;10.00;99.90
4643;DHT22;2334;48.710;9.622;2023-03-17T08:18:34;10.00;99.90
4643;DHT22;2334;48.710;9.622;2023-03-17T08:21:01;10.20;99.90
4643;DHT22;2334;48.710;9.622;2023-03-17T08:23:32;10.40;99.90
4643;DHT22;2334;48.710;9.622;2023-03-17T08:26:00;10.50;99.90
4643;DHT22;2334;48.710;9.622;2023-03-17T08:28:28;10.60;99.90
4643;DHT22;2334;48.710;9.622;2023-03-17T08:31:05;10.70;99.90
4643;DHT22;2334;48.710;9.622;2023-03-17T08:33:33;10.80;99.90
4643;DHT22;2334;48.710;9.622;2023-03-17T08:36:03;11.00;99.90
4643;DHT22;2334;48.710;9.622;2023-03-17T08:38:32;11.10;99.90
4643;DHT22;2334;48.710;9.622;2023-03-17T08:41:00;11.20;99.90
4643;DHT22;2334;48.710;9.622;2023-03-17T08:43:27;11.30;99.90
4643;DHT22;2334;48.710;9.622;2023-03-17T08:45:59;11.50;99.90
4643;DHT22;2334;48.710;9.622;2023-03-17T08:48:27;11.60;99.90
4643;DHT22;2334;48.710;9.622;2023-03-17T08:50:55;11.60;99.90
4643;DHT22;2334;48.710;9.622;2023-03-17T08:53:22;11.60;99.90
4643;DHT22;2334;48.710;9.622;2023-03-17T08:55:52;11.70;99.90
4643;DHT22;2334;48.710;9.622;2023-03-17T08:58:20;11.70;99.90
4643;DHT22;2334;48.710;9.622;2023-03-17T09:00:46;11.80;99.90
4643;DHT22;2334;48.710;9.622;2023-03-17T09:03:14;12.00;99.90
4643;DHT22;2334;48.710;9.622;2023-03-17T09:05:41;12.10;99.90
4643;DHT22;2334;48.710;9.622;2023-03-17T09:08:09;12.10;99.90
4643;DHT22;2334;48.710;9.622;2023-03-17T09:10:37;12.10;99.90
4643;DHT22;2334;48.710;9.622;2023-03-17T09:13:06;12.20;99.90
4643;DHT22;2334;48.710;9.622;2023-03-17T09:15:34;12.00;99.90
4643;DHT22;2334;48.710;9.622;2023-03-17T09:18:01;12.10;99.90
4643;DHT22;2334;48.710;9.622;2023-03-17T09:20:32;12.10;99.90
4643;DHT22;2334;48.710;9.622;2023-03-17T09:22:59;12.20;99.90
4643;DHT22;2334;48.710;9.622;2023-03-17T09:25:27;12.30;99.90
4643;DHT22;2334;48.710;9.622;2023-03-17T09:27:54;12.30;99.90
4643;DHT22;2334;48.710;9.622;2023-03-17T09:30:23;12.50;99.90
4643;DHT22;2334;48.710;9.622;2023-03-17T09:32:51;12.80;99.90
4643;DHT22;2334;48.710;9.622;2023-03-17T09:35:18;13.00;99.90
4643;DHT22;2334;48.710;9.622;2023-03-17T09:37:46;13.20;99.90
4643;DHT22;2334;48.710;9.622;2023-03-17T09:40:15;13.20;99.90
4643;DHT22;2334;48.710;9.622;2023-03-17T09:42:52;13.20;99.90
4643;DHT22;2334;48.710;9.622;2023-03-17T09:45:31;13.50;99.90
4643;DHT22;2334;48.710;9.622;2023-03-17T09:48:11;13.60;99.90
4643;DHT22;2334;48.710;9.622;2023-03-17T09:50:45;14.00;99.90
4643;DHT22;2334;48.710;9.622;2023-03-17T09:53:17;14.30;99.90
4643;DHT22;2334;48.710;9.622;2023-03-17T09:55:46;14.30;99.90
4643;DHT22;2334;48.710;9.622;2023-03-17T09:58:19;14.70;99.90
4643;DHT22;2334;48.710;9.622;2023-03-17T10:00:48;14.70;99.90
4643;DHT22;2334;48.710;9.622;2023-03-17T10:03:16;14.70;99.90
4643;DHT22;2334;48.710;9.622;2023-03-17T10:05:43;14.90;99.90
4643;DHT22;2334;48.710;9.622;2023-03-17T10:08:14;15.20;99.90
4643;DHT22;2334;48.710;9.622;2023-03-17T10:10:45;15.60;99.90
4643;DHT22;2334;48.710;9.622;2023-03-17T10:13:26;16.00;99.90
4643;DHT22;2334;48.710;9.622;2023-03-17T10:15:58;16.30;99.90
4643;DHT22;2334;48.710;9.622;2023-03-17T10:18:32;16.60;99.90
4643;DHT22;2334;48.710;9.622;2023-03-17T10:21:08;16.70;99.90
4643;DHT22;2334;48.710;9.622;2023-03-17T10:23:39;16.80;99.90
4643;DHT22;2334;48.710;9.622;2023-03-17T10:26:23;17.00;99.90
4643;DHT22;2334;48.710;9.622;2023-03-17T10:28:52;17.20;99.90
4643;DHT22;2334;48.710;9.622;2023-03-17T10:31:27;17.00;99.90
4643;DHT22;2334;48.710;9.622;2023-03-17T10:33:55;16.90;99.90
4643;DHT22;2334;48.710;9.622;2023-03-17T10:36:35;17.20;99.90
4643;DHT22;2334;48.710;9.622;2023-03-17T10:39:04;17.00;99.90
4643;DHT22;2334;48.710;9.622;2023-03-17T10:41:34;17.40;99.90
4643;DHT22;2334;48.710;9.622;2023-03-17T10:44:07;17.50;99.90
4643;DHT22;2334;48.710;9.622;2023-03-17T10:46:37;17.80;99.90
4643;DHT22;2334;48.710;9.622;2023-03-17T10:49:07;18.20;99.90
4643;DHT22;2334;48.710;9.622;2023-03-17T10:51:36;18.30;99.90
4643;DHT22;2334;48.710;9.622;2023-03-17T10:54:08;18.40;99.90
4643;DHT22;2334;48.710;9.622;2023-03-17T10:56:36;18.40;99.90
4643;DHT22;2334;48.710;9.622;2023-03-17T10:59:06;18.20;99.90
4643;DHT22;2334;48.710;9.622;2023-03-17T11:01:39;18.50;99.90
4643;DHT22;2334;48.710;9.622;2023-03-17T11:04:25;18.70;99.90
4643;DHT22;2334;48.710;9.622;2023-03-17T11:06:54;18.60;99.90
4643;DHT22;2334;48.710;9.622;2023-03-17T11:09:21;18.60;99.90
4643;DHT22;2334;48.710;9.622;2023-03-17T11:12:00;18.90;99.90
4643;DHT22;2334;48.710;9.622;2023-03-17T11:14:27;18.80;99.90
4643;DHT22;2334;48.710;9.622;2023-03-17T11:16:57;18.80;99.90
4643;DHT22;2334;48.710;9.622;2023-03-17T11:19:33;18.60;99.90
4643;DHT22;2334;48.710;9.622;2023-03-17T11:22:09;18.90;99.90
4643;DHT22;2334;48.710;9.622;2023-03-17T11:24:45;18.80;99.90
4643;DHT22;2334;48.710;9.622;2023-03-17T11:27:22;19.00;99.90
4643;DHT22;2334;48.710;9.622;2023-03-17T11:30:04;19.00;99.90
4643;DHT22;2334;48.710;9.622;2023-03-17T11:32:40;18.90;99.90
4643;DHT22;2334;48.710;9.622;2023-03-17T11:35:23;19.20;99.90
4643;DHT22;2334;48.710;9.622;2023-03-17T11:38:03;19.20;99.90
4643;DHT22;2334;48.710;9.622;2023-03-17T11:40:34;19.50;99.90
4643;DHT22;2334;48.710;9.622;2023-03-17T11:43:23;19.60;99.90
4643;DHT22;2334;48.710;9.622;2023-03-17T11:45:56;19.60;99.90
4643;DHT22;2334;48.710;9.622;2023-03-17T11:48:39;19.60;99.90
4643;DHT22;2334;48.710;9.622;2023-03-17T11:51:15;19.60;99.90
4643;DHT22;2334;48.710;9.622;2023-03-17T11:54:09;19.40;99.90
4643;DHT22;2334;48.710;9.622;2023-03-17T11:56:40;19.60;99.90
4643;DHT22;2334;48.710;9.622;2023-03-17T11:59:16;19.70;99.90
4643;DHT22;2334;48.710;9.622;2023-03-17T12:01:55;19.70;99.90
4643;DHT22;2334;48.710;9.622;2023-03-17T12:04:28;19.60;99.90
4643;DHT22;2334;48.710;9.622;2023-03-17T12:07:02;19.80;99.90
4643;DHT22;2334;48.710;9.622;2023-03-17T12:09:37;20.00;99.90
4643;DHT22;2334;48.710;9.622;2023-03-17T12:12:07;20.10;99.90
4643;DHT22;2334;48.710;9.622;2023-03-17T12:14:38;20.20;99.90
4643;DHT22;2334;48.710;9.622;2023-03-17T12:17:10;20.20;99.90
4643;DHT22;2334;48.710;9.622;2023-03-17T12:19:45;20.00;99.90
4643;DHT22;2334;48.710;9.622;2023-03-17T12:22:21;19.70;99.90
4643;DHT22;2334;48.710;9.622;2023-03-17T12:25:00;19.80;99.90
4643;DHT22;2334;48.710;9.622;2023-03-17T12:27:31;19.60;99.90
4643;DHT22;2334;48.710;9.622;2023-03-17T12:30:02;19.80;99.90
4643;DHT22;2334;48.710;9.622;2023-03-17T12:32:36;19.80;99.90
4643;DHT22;2334;48.710;9.622;2023-03-17T12:35:21;19.80;99.90
4643;DHT22;2334;48.710;9.622;2023-03-17T12:37:49;19.80;99.90
4643;DHT22;2334;48.710;9.622;2023-03-17T12:40:18;19.80;99.90
4643;DHT22;2334;48.710;9.622;2023-03-17T12:42:51;20.10;99.90
4643;DHT22;2334;48.710;9.622;2023-03-17T12:48:32;20.60;99.90
4643;DHT22;2334;48.710;9.622;2023-03-17T12:51:33;20.60;99.90
4643;DHT22;2334;48.710;9.622;2023-03-17T12:54:10;20.60;99.80
4643;DHT22;2334;48.710;9.622;2023-03-17T12:56:42;20.70;99.90
4643;DHT22;2334;48.710;9.622;2023-03-17T12:59:15;20.60;99.30
4643;DHT22;2334;48.710;9.622;2023-03-17T13:01:44;20.50;99.40
4643;DHT22;2334;48.710;9.622;2023-03-17T13:04:19;20.70;99.90
4643;DHT22;2334;48.710;9.622;2023-03-17T13:06:57;20.70;98.70
4643;DHT22;2334;48.710;9.622;2023-03-17T13:09:34;20.70;98.30
4643;DHT22;2334;48.710;9.622;2023-03-17T13:12:05;20.90;98.90
4643;DHT22;2334;48.710;9.622;2023-03-17T13:14:41;21.00;99.00
4643;DHT22;2334;48.710;9.622;2023-03-17T13:17:31;21.20;99.00
4643;DHT22;2334;48.710;9.622;2023-03-17T13:20:10;21.20;98.80
4643;DHT22;2334;48.710;9.622;2023-03-17T13:22:41;21.00;99.10
4643;DHT22;2334;48.710;9.622;2023-03-17T13:25:31;20.90;98.90
4643;DHT22;2334;48.710;9.622;2023-03-17T13:28:20;20.80;99.90
4643;DHT22;2334;48.710;9.622;2023-03-17T13:31:06;20.50;99.60
4643;DHT22;2334;48.710;9.622;2023-03-17T13:33:35;20.40;99.60
4643;DHT22;2334;48.710;9.622;2023-03-17T13:36:24;20.20;99.90
4643;DHT22;2334;48.710;9.622;2023-03-17T13:39:17;20.30;99.90
4643;DHT22;2334;48.710;9.622;2023-03-17T13:41:57;20.30;98.90
4643;DHT22;2334;48.710;9.622;2023-03-17T13:44:35;20.40;98.40
4643;DHT22;2334;48.710;9.622;2023-03-17T13:47:22;20.40;98.50
4643;DHT22;2334;48.710;9.622;2023-03-17T13:49:52;20.30;99.80
4643;DHT22;2334;48.710;9.622;2023-03-17T13:52:25;20.20;99.90
4643;DHT22;2334;48.710;9.622;2023-03-17T13:55:02;20.30;99.90
4643;DHT22;2334;48.710;9.622;2023-03-17T13:57:35;20.20;99.90
4643;DHT22;2334;48.710;9.622;2023-03-17T14:00:15;20.00;99.90
4643;DHT22;2334;48.710;9.622;2023-03-17T14:02:47;20.00;99.90
4643;DHT22;2334;48.710;9.622;2023-03-17T14:05:20;20.00;99.90
4643;DHT22;2334;48.710;9.622;2023-03-17T14:07:52;20.00;99.90
4643;DHT22;2334;48.710;9.622;2023-03-17T14:10:24;20.00;99.90
4643;DHT22;2334;48.710;9.622;2023-03-17T14:12:57;20.10;99.90
4643;DHT22;2334;48.710;9.622;2023-03-17T14:15:28;20.10;99.90
4643;DHT22;2334;48.710;9.622;2023-03-17T14:17:59;20.00;99.90
4643;DHT22;2334;48.710;9.622;2023-03-17T14:20:29;20.10;99.90
4643;DHT22;2334;48.710;9.622;2023-03-17T14:22:58;19.90;99.90
4643;DHT22;2334;48.710;9.622;2023-03-17T14:25:31;19.90;99.90
4643;DHT22;2334;48.710;9.622;2023-03-17T14:27:59;19.90;99.90
4643;DHT22;2334;48.710;9.622;2023-03-17T14:30:28;19.90;99.90
4643;DHT22;2334;48.710;9.622;2023-03-17T14:32:59;20.00;99.90
4643;DHT22;2334;48.710;9.622;2023-03-17T14:35:31;19.90;99.90
4643;DHT22;2334;48.710;9.622;2023-03-17T14:37:59;19.90;99.90
4643;DHT22;2334;48.710;9.622;2023-03-17T14:40:29;19.80;99.90
4643;DHT22;2334;48.710;9.622;2023-03-17T14:43:01;19.80;99.90
4643;DHT22;2334;48.710;9.622;2023-03-17T14:45:41;19.60;99.90
4643;DHT22;2334;48.710;9.622;2023-03-17T14:48:12;19.50;99.90
4643;DHT22;2334;48.710;9.622;2023-03-17T14:50:49;19.30;99.90
4643;DHT22;2334;48.710;9.622;2023-03-17T14:53:17;19.20;99.90
4643;DHT22;2334;48.710;9.622;2023-03-17T14:55:46;19.20;99.90
4643;DHT22;2334;48.710;9.622;2023-03-17T14:58:21;19.10;99.90
4643;DHT22;2334;48.710;9.622;2023-03-17T15:00:54;19.10;99.90
4643;DHT22;2334;48.710;9.622;2023-03-17T15:03:23;19.00;99.90
4643;DHT22;2334;48.710;9.622;2023-03-17T15:06:03;19.00;99.90
4643;DHT22;2334;48.710;9.622;2023-03-17T15:08:42;18.90;99.90
4643;DHT22;2334;48.710;9.622;2023-03-17T15:11:21;18.90;99.90
4643;DHT22;2334;48.710;9.622;2023-03-17T15:13:51;19.00;99.90
4643;DHT22;2334;48.710;9.622;2023-03-17T15:16:22;19.00;99.90
4643;DHT22;2334;48.710;9.622;2023-03-17T15:18:56;19.20;99.90
4643;DHT22;2334;48.710;9.622;2023-03-17T15:21:31;19.10;99.90
4643;DHT22;2334;48.710;9.622;2023-03-17T15:24:04;19.10;99.90
4643;DHT22;2334;48.710;9.622;2023-03-17T15:26:36;19.00;99.90
4643;DHT22;2334;48.710;9.622;2023-03-17T15:29:03;19.00;99.90
4643;DHT22;2334;48.710;9.622;2023-03-17T15:31:32;18.70;99.90
4643;DHT22;2334;48.710;9.622;2023-03-17T15:33:59;18.70;99.90
4643;DHT22;2334;48.710;9.622;2023-03-17T15:36:27;18.60;99.90
4643;DHT22;2334;48.710;9.622;2023-03-17T15:38:54;18.60;99.90
4643;DHT22;2334;48.710;9.622;2023-03-17T15:41:20;18.50;99.90
4643;DHT22;2334;48.710;9.622;2023-03-17T15:43:49;18.40;99.90
4643;DHT22;2334;48.710;9.622;2023-03-17T15:46:20;18.30;99.90
4643;DHT22;2334;48.710;9.622;2023-03-17T15:48:49;18.30;99.90
4643;DHT22;2334;48.710;9.622;2023-03-17T15:51:16;18.20;99.90
4643;DHT22;2334;48.710;9.622;2023-03-17T15:53:43;18.20;99.90
4643;DHT22;2334;48.710;9.622;2023-03-17T15:56:14;18.20;99.90
4643;DHT22;2334;48.710;9.622;2023-03-17T15:58:44;18.10;99.90
4643;DHT22;2334;48.710;9.622;2023-03-17T16:01:12;18.00;99.90
4643;DHT22;2334;48.710;9.622;2023-03-17T16:03:40;17.90;99.90
4643;DHT22;2334;48.710;9.622;2023-03-17T16:06:14;17.90;99.90
4643;DHT22;2334;48.710;9.622;2023-03-17T16:08:41;17.90;99.90
4643;DHT22;2334;48.710;9.622;2023-03-17T16:11:19;17.70;99.90
4643;DHT22;2334;48.710;9.622;2023-03-17T16:13:52;17.70;99.90
4643;DHT22;2334;48.710;9.622;2023-03-17T16:16:29;17.60;99.90
4643;DHT22;2334;48.710;9.622;2023-03-17T16:18:56;17.60;99.90
4643;DHT22;2334;48.710;9.622;2023-03-17T16:21:23;17.50;99.90
4643;DHT22;2334;48.710;9.622;2023-03-17T16:23:50;17.50;99.90
4643;DHT22;2334;48.710;9.622;2023-03-17T16:26:18;17.40;99.90
4643;DHT22;2334;48.710;9.622;2023-03-17T16:28:45;17.40;99.90
4643;DHT22;2334;48.710;9.622;2023-03-17T16:31:30;17.30;99.90